sensor_id;sensor_type;location;lat;lon;timestamp;temperature;humidity
44170;DHT22;29836;52.286;9.576;2022-10-17T00:01:06;12.90;99.90
44170;DHT22;29836;52.286;9.576;2022-10-17T00:03:33;12.90;99.90
44170;DHT22;29836;52.286;9.576;2022-10-17T00:05:58;12.90;99.90
44170;DHT22;29836;52.286;9.576;2022-10-17T00:08:29;12.90;99.90
44170;DHT22;29836;52.286;9.576;2022-10-17T00:11:00;12.90;99.90
44170;DHT22;29836;52.286;9.576;2022-10-17T00:13:27;12.90;99.90
44170;DHT22;29836;52.286;9.576;2022-10-17T00:15:52;12.80;99.90
44170;DHT22;29836;52.286;9.576;2022-10-17T00:18:18;12.80;99.90
44170;DHT22;29836;52.286;9.576;2022-10-17T00:20:44;12.80;99.90
44170;DHT22;29836;52.286;9.576;2022-10-17T00:23:09;12.80;99.90
44170;DHT22;29836;52.286;9.576;2022-10-17T00:25:35;12.80;99.90
44170;DHT22;29836;52.286;9.576;2022-10-17T00:28:01;12.80;99.90
44170;DHT22;29836;52.286;9.576;2022-10-17T00:30:27;12.80;99.90
44170;DHT22;29836;52.286;9.576;2022-10-17T00:32:52;12.80;99.90
44170;DHT22;29836;52.286;9.576;2022-10-17T00:35:18;12.90;99.90
44170;DHT22;29836;52.286;9.576;2022-10-17T00:37:44;12.90;99.90
44170;DHT22;29836;52.286;9.576;2022-10-17T00:40:09;12.90;99.90
44170;DHT22;29836;52.286;9.576;2022-10-17T00:42:35;12.90;99.90
44170;DHT22;29836;52.286;9.576;2022-10-17T00:47:41;12.90;99.90
44170;DHT22;29836;52.286;9.576;2022-10-17T00:50:10;12.90;99.90
44170;DHT22;29836;52.286;9.576;2022-10-17T00:52:36;12.90;99.90
44170;DHT22;29836;52.286;9.576;2022-10-17T00:55:08;12.90;99.90
44170;DHT22;29836;52.286;9.576;2022-10-17T00:57:35;12.90;99.90
44170;DHT22;29836;52.286;9.576;2022-10-17T01:00:05;13.00;99.90
44170;DHT22;29836;52.286;9.576;2022-10-17T01:02:31;13.00;99.90
44170;DHT22;29836;52.286;9.576;2022-10-17T01:04:57;13.00;99.90
44170;DHT22;29836;52.286;9.576;2022-10-17T01:07:24;13.00;99.90
44170;DHT22;29836;52.286;9.576;2022-10-17T01:09:51;13.00;99.90
44170;DHT22;29836;52.286;9.576;2022-10-17T01:15:31;13.00;99.90
44170;DHT22;29836;52.286;9.576;2022-10-17T01:23:46;12.90;99.90
44170;DHT22;29836;52.286;9.576;2022-10-17T01:26:58;13.00;99.90
44170;DHT22;29836;52.286;9.576;2022-10-17T01:32:57;12.80;99.90
44170;DHT22;29836;52.286;9.576;2022-10-17T01:35:39;12.90;99.90
44170;DHT22;29836;52.286;9.576;2022-10-17T01:38:10;12.90;99.90
44170;DHT22;29836;52.286;9.576;2022-10-17T01:40:44;12.90;99.90
44170;DHT22;29836;52.286;9.576;2022-10-17T01:43:21;12.90;99.90
44170;DHT22;29836;52.286;9.576;2022-10-17T01:46:02;12.80;99.90
44170;DHT22;29836;52.286;9.576;2022-10-17T01:48:34;12.80;99.90
44170;DHT22;29836;52.286;9.576;2022-10-17T01:51:06;12.90;99.90
44170;DHT22;29836;52.286;9.576;2022-10-17T01:53:36;12.80;99.90
44170;DHT22;29836;52.286;9.576;2022-10-17T01:56:05;12.80;99.90
44170;DHT22;29836;52.286;9.576;2022-10-17T01:58:54;12.70;99.90
44170;DHT22;29836;52.286;9.576;2022-10-17T02:01:23;12.80;99.90
44170;DHT22;29836;52.286;9.576;2022-10-17T02:03:50;12.80;99.90
44170;DHT22;29836;52.286;9.576;2022-10-17T02:06:17;12.80;99.90
44170;DHT22;29836;52.286;9.576;2022-10-17T02:08:44;12.80;99.90
44170;DHT22;29836;52.286;9.576;2022-10-17T02:27:14;13.40;99.90
44170;DHT22;29836;52.286;9.576;2022-10-17T02:29:52;13.50;99.90
44170;DHT22;29836;52.286;9.576;2022-10-17T02:33:00;13.50;99.90
44170;DHT22;29836;52.286;9.576;2022-10-17T02:35:19;13.60;99.90
44170;DHT22;29836;52.286;9.576;2022-10-17T02:37:47;13.60;99.90
44170;DHT22;29836;52.286;9.576;2022-10-17T02:40:14;13.70;99.90
44170;DHT22;29836;52.286;9.576;2022-10-17T02:42:43;13.80;99.90
44170;DHT22;29836;52.286;9.576;2022-10-17T02:45:10;13.80;99.90
44170;DHT22;29836;52.286;9.576;2022-10-17T02:50:05;13.60;99.90
44170;DHT22;29836;52.286;9.576;2022-10-17T02:55:02;13.90;99.90
44170;DHT22;29836;52.286;9.576;2022-10-17T02:57:41;13.90;99.90
44170;DHT22;29836;52.286;9.576;2022-10-17T03:00:11;13.90;99.90
44170;DHT22;29836;52.286;9.576;2022-10-17T03:02:48;14.00;99.90
44170;DHT22;29836;52.286;9.576;2022-10-17T03:05:20;14.10;99.90
44170;DHT22;29836;52.286;9.576;2022-10-17T03:07:46;14.20;99.90
44170;DHT22;29836;52.286;9.576;2022-10-17T03:10:12;14.30;99.90
44170;DHT22;29836;52.286;9.576;2022-10-17T03:12:37;14.30;99.90
44170;DHT22;29836;52.286;9.576;2022-10-17T03:15:03;14.40;99.90
44170;DHT22;29836;52.286;9.576;2022-10-17T03:17:29;14.40;99.90
44170;DHT22;29836;52.286;9.576;2022-10-17T03:19:55;14.40;99.90
44170;DHT22;29836;52.286;9.576;2022-10-17T03:22:20;14.50;99.90
44170;DHT22;29836;52.286;9.576;2022-10-17T03:24:46;14.70;99.90
44170;DHT22;29836;52.286;9.576;2022-10-17T03:27:11;14.80;99.90
44170;DHT22;29836;52.286;9.576;2022-10-17T03:29:37;14.80;99.90
44170;DHT22;29836;52.286;9.576;2022-10-17T03:32:02;14.70;99.90
44170;DHT22;29836;52.286;9.576;2022-10-17T03:34:28;14.70;99.90
44170;DHT22;29836;52.286;9.576;2022-10-17T03:36:54;14.60;99.90
44170;DHT22;29836;52.286;9.576;2022-10-17T03:39:19;14.70;99.90
44170;DHT22;29836;52.286;9.576;2022-10-17T03:41:45;14.70;99.90
44170;DHT22;29836;52.286;9.576;2022-10-17T03:44:11;14.60;99.90
44170;DHT22;29836;52.286;9.576;2022-10-17T03:46:36;14.60;99.90
44170;DHT22;29836;52.286;9.576;2022-10-17T03:49:02;14.50;99.90
44170;DHT22;29836;52.286;9.576;2022-10-17T03:51:27;14.50;99.90
44170;DHT22;29836;52.286;9.576;2022-10-17T03:53:53;14.50;99.90
44170;DHT22;29836;52.286;9.576;2022-10-17T03:56:21;14.50;99.90
44170;DHT22;29836;52.286;9.576;2022-10-17T03:58:47;14.40;99.90
44170;DHT22;29836;52.286;9.576;2022-10-17T04:01:15;14.40;99.90
44170;DHT22;29836;52.286;9.576;2022-10-17T04:03:41;14.30;99.90
44170;DHT22;29836;52.286;9.576;2022-10-17T04:06:10;14.30;99.90
44170;DHT22;29836;52.286;9.576;2022-10-17T04:08:36;14.20;99.90
44170;DHT22;29836;52.286;9.576;2022-10-17T04:11:05;14.20;99.90
44170;DHT22;29836;52.286;9.576;2022-10-17T04:13:32;14.10;99.90
44170;DHT22;29836;52.286;9.576;2022-10-17T04:16:00;14.10;99.90
44170;DHT22;29836;52.286;9.576;2022-10-17T04:18:26;14.10;99.90
44170;DHT22;29836;52.286;9.576;2022-10-17T04:20:52;14.10;99.90
44170;DHT22;29836;52.286;9.576;2022-10-17T04:23:18;14.00;99.90
44170;DHT22;29836;52.286;9.576;2022-10-17T04:25:44;14.10;99.90
44170;DHT22;29836;52.286;9.576;2022-10-17T04:28:10;14.10;99.90
44170;DHT22;29836;52.286;9.576;2022-10-17T04:30:36;14.10;99.90
44170;DHT22;29836;52.286;9.576;2022-10-17T04:33:02;14.00;99.90
44170;DHT22;29836;52.286;9.576;2022-10-17T04:35:27;14.00;99.90
44170;DHT22;29836;52.286;9.576;2022-10-17T04:37:53;14.00;99.90
44170;DHT22;29836;52.286;9.576;2022-10-17T04:40:19;13.90;99.90
44170;DHT22;29836;52.286;9.576;2022-10-17T04:42:45;13.90;99.90
44170;DHT22;29836;52.286;9.576;2022-10-17T04:45:12;14.00;99.90
44170;DHT22;29836;52.286;9.576;2022-10-17T04:47:37;14.10;99.90
44170;DHT22;29836;52.286;9.576;2022-10-17T04:50:04;14.00;99.90
44170;DHT22;29836;52.286;9.576;2022-10-17T04:52:30;13.90;99.90
44170;DHT22;29836;52.286;9.576;2022-10-17T04:54:56;13.80;99.90
44170;DHT22;29836;52.286;9.576;2022-10-17T04:57:22;13.70;99.90
44170;DHT22;29836;52.286;9.576;2022-10-17T04:59:49;13.60;99.90
44170;DHT22;29836;52.286;9.576;2022-10-17T05:02:15;13.50;99.90
44170;DHT22;29836;52.286;9.576;2022-10-17T05:04:40;13.30;99.90
44170;DHT22;29836;52.286;9.576;2022-10-17T05:07:06;13.30;99.90
44170;DHT22;29836;52.286;9.576;2022-10-17T05:09:32;13.20;99.90
44170;DHT22;29836;52.286;9.576;2022-10-17T05:11:57;13.20;99.90
44170;DHT22;29836;52.286;9.576;2022-10-17T05:14:23;13.20;99.90
44170;DHT22;29836;52.286;9.576;2022-10-17T05:16:48;13.20;99.90
44170;DHT22;29836;52.286;9.576;2022-10-17T05:19:14;13.40;99.90
44170;DHT22;29836;52.286;9.576;2022-10-17T05:21:39;13.40;99.90
44170;DHT22;29836;52.286;9.576;2022-10-17T05:24:06;13.40;99.90
44170;DHT22;29836;52.286;9.576;2022-10-17T05:26:32;13.50;99.90
44170;DHT22;29836;52.286;9.576;2022-10-17T05:28:59;13.60;99.90
44170;DHT22;29836;52.286;9.576;2022-10-17T05:31:27;13.70;99.90
44170;DHT22;29836;52.286;9.576;2022-10-17T05:33:53;13.70;99.90
44170;DHT22;29836;52.286;9.576;2022-10-17T05:36:19;13.70;99.90
44170;DHT22;29836;52.286;9.576;2022-10-17T05:38:50;13.70;99.90
44170;DHT22;29836;52.286;9.576;2022-10-17T05:41:17;13.80;99.90
44170;DHT22;29836;52.286;9.576;2022-10-17T05:43:43;13.80;99.90
44170;DHT22;29836;52.286;9.576;2022-10-17T05:46:09;13.80;99.90
44170;DHT22;29836;52.286;9.576;2022-10-17T05:48:35;13.80;99.90
44170;DHT22;29836;52.286;9.576;2022-10-17T05:51:02;14.00;99.90
44170;DHT22;29836;52.286;9.576;2022-10-17T05:53:33;14.00;99.90
44170;DHT22;29836;52.286;9.576;2022-10-17T05:56:01;14.10;99.90
44170;DHT22;29836;52.286;9.576;2022-10-17T05:58:27;14.30;99.90
44170;DHT22;29836;52.286;9.576;2022-10-17T06:01:04;14.40;99.90
44170;DHT22;29836;52.286;9.576;2022-10-17T06:03:31;14.50;99.90
44170;DHT22;29836;52.286;9.576;2022-10-17T06:06:03;14.60;99.90
44170;DHT22;29836;52.286;9.576;2022-10-17T06:08:29;14.70;99.90
44170;DHT22;29836;52.286;9.576;2022-10-17T06:10:55;14.80;99.90
44170;DHT22;29836;52.286;9.576;2022-10-17T06:13:20;14.90;99.90
44170;DHT22;29836;52.286;9.576;2022-10-17T06:15:46;15.00;99.90
44170;DHT22;29836;52.286;9.576;2022-10-17T06:18:12;15.00;99.90
44170;DHT22;29836;52.286;9.576;2022-10-17T06:20:37;15.10;99.90
44170;DHT22;29836;52.286;9.576;2022-10-17T06:23:04;15.10;99.90
44170;DHT22;29836;52.286;9.576;2022-10-17T06:25:31;15.20;99.90
44170;DHT22;29836;52.286;9.576;2022-10-17T06:27:56;15.30;99.90
44170;DHT22;29836;52.286;9.576;2022-10-17T06:30:22;15.40;99.90
44170;DHT22;29836;52.286;9.576;2022-10-17T06:32:48;15.40;99.90
44170;DHT22;29836;52.286;9.576;2022-10-17T06:35:13;15.50;99.90
44170;DHT22;29836;52.286;9.576;2022-10-17T06:37:39;15.60;99.90
44170;DHT22;29836;52.286;9.576;2022-10-17T06:40:06;15.70;99.90
44170;DHT22;29836;52.286;9.576;2022-10-17T06:42:33;15.90;99.90
44170;DHT22;29836;52.286;9.576;2022-10-17T06:44:59;16.20;99.90
44170;DHT22;29836;52.286;9.576;2022-10-17T06:47:24;16.40;99.90
44170;DHT22;29836;52.286;9.576;2022-10-17T06:49:50;16.50;99.90
44170;DHT22;29836;52.286;9.576;2022-10-17T06:52:16;16.70;99.90
44170;DHT22;29836;52.286;9.576;2022-10-17T06:54:42;16.90;99.90
44170;DHT22;29836;52.286;9.576;2022-10-17T06:57:08;17.00;99.90
44170;DHT22;29836;52.286;9.576;2022-10-17T06:59:34;17.00;99.90
44170;DHT22;29836;52.286;9.576;2022-10-17T07:02:00;17.00;99.90
44170;DHT22;29836;52.286;9.576;2022-10-17T07:04:27;17.00;99.90
44170;DHT22;29836;52.286;9.576;2022-10-17T07:06:53;17.00;99.90
44170;DHT22;29836;52.286;9.576;2022-10-17T07:09:19;17.00;99.90
44170;DHT22;29836;52.286;9.576;2022-10-17T07:11:44;17.10;99.90
44170;DHT22;29836;52.286;9.576;2022-10-17T07:14:10;17.20;99.90
44170;DHT22;29836;52.286;9.576;2022-10-17T07:16:36;17.30;99.90
44170;DHT22;29836;52.286;9.576;2022-10-17T07:19:02;17.40;99.90
44170;DHT22;29836;52.286;9.576;2022-10-17T07:21:27;17.60;99.90
44170;DHT22;29836;52.286;9.576;2022-10-17T07:23:53;17.70;99.90
44170;DHT22;29836;52.286;9.576;2022-10-17T07:26:19;18.00;99.90
44170;DHT22;29836;52.286;9.576;2022-10-17T07:28:46;18.30;99.90
44170;DHT22;29836;52.286;9.576;2022-10-17T07:31:15;18.50;99.90
44170;DHT22;29836;52.286;9.576;2022-10-17T07:33:41;18.60;99.90
44170;DHT22;29836;52.286;9.576;2022-10-17T07:36:08;18.70;99.90
44170;DHT22;29836;52.286;9.576;2022-10-17T07:38:34;18.70;99.90
44170;DHT22;29836;52.286;9.576;2022-10-17T07:41:03;18.80;99.90
44170;DHT22;29836;52.286;9.576;2022-10-17T07:43:29;19.10;99.90
44170;DHT22;29836;52.286;9.576;2022-10-17T07:45:55;19.40;99.90
44170;DHT22;29836;52.286;9.576;2022-10-17T07:48:21;19.50;99.90
44170;DHT22;29836;52.286;9.576;2022-10-17T07:50:47;19.50;99.90
44170;DHT22;29836;52.286;9.576;2022-10-17T07:53:13;19.40;99.90
44170;DHT22;29836;52.286;9.576;2022-10-17T07:55:40;19.40;99.90
44170;DHT22;29836;52.286;9.576;2022-10-17T07:58:07;19.40;99.90
44170;DHT22;29836;52.286;9.576;2022-10-17T08:00:34;19.50;99.90
44170;DHT22;29836;52.286;9.576;2022-10-17T08:02:59;19.60;99.90
44170;DHT22;29836;52.286;9.576;2022-10-17T08:05:25;19.80;99.90
44170;DHT22;29836;52.286;9.576;2022-10-17T08:07:50;19.80;99.90
44170;DHT22;29836;52.286;9.576;2022-10-17T08:10:16;20.00;99.90
44170;DHT22;29836;52.286;9.576;2022-10-17T08:12:42;20.10;99.90
44170;DHT22;29836;52.286;9.576;2022-10-17T08:15:08;20.50;99.90
44170;DHT22;29836;52.286;9.576;2022-10-17T08:17:35;20.60;99.90
44170;DHT22;29836;52.286;9.576;2022-10-17T08:20:01;21.00;99.90
44170;DHT22;29836;52.286;9.576;2022-10-17T08:22:27;21.30;99.90
44170;DHT22;29836;52.286;9.576;2022-10-17T08:24:52;21.40;99.90
44170;DHT22;29836;52.286;9.576;2022-10-17T08:27:18;21.70;99.90
44170;DHT22;29836;52.286;9.576;2022-10-17T08:29:48;21.80;99.90
44170;DHT22;29836;52.286;9.576;2022-10-17T08:32:18;21.90;99.90
44170;DHT22;29836;52.286;9.576;2022-10-17T08:34:44;21.90;99.90
44170;DHT22;29836;52.286;9.576;2022-10-17T08:37:09;22.10;99.90
44170;DHT22;29836;52.286;9.576;2022-10-17T08:39:41;22.20;99.90
44170;DHT22;29836;52.286;9.576;2022-10-17T08:42:41;22.30;99.90
44170;DHT22;29836;52.286;9.576;2022-10-17T08:47:42;22.10;99.90
44170;DHT22;29836;52.286;9.576;2022-10-17T08:55:32;21.70;99.90
44170;DHT22;29836;52.286;9.576;2022-10-17T08:58:00;21.40;99.90
44170;DHT22;29836;52.286;9.576;2022-10-17T09:00:27;20.70;99.90
44170;DHT22;29836;52.286;9.576;2022-10-17T09:09:10;20.30;99.90
44170;DHT22;29836;52.286;9.576;2022-10-17T09:14:21;20.20;99.90
44170;DHT22;29836;52.286;9.576;2022-10-17T09:19:43;20.80;99.90
44170;DHT22;29836;52.286;9.576;2022-10-17T09:22:20;21.20;99.90
44170;DHT22;29836;52.286;9.576;2022-10-17T09:24:59;21.40;99.90
44170;DHT22;29836;52.286;9.576;2022-10-17T09:27:53;21.70;99.90
44170;DHT22;29836;52.286;9.576;2022-10-17T09:33:00;22.90;99.90
44170;DHT22;29836;52.286;9.576;2022-10-17T09:35:27;23.80;99.90
44170;DHT22;29836;52.286;9.576;2022-10-17T09:37:53;24.40;99.80
44170;DHT22;29836;52.286;9.576;2022-10-17T09:40:31;25.10;98.20
44170;DHT22;29836;52.286;9.576;2022-10-17T09:42:58;25.90;96.40
44170;DHT22;29836;52.286;9.576;2022-10-17T09:45:26;25.70;95.80
44170;DHT22;29836;52.286;9.576;2022-10-17T09:48:20;26.20;94.20
44170;DHT22;29836;52.286;9.576;2022-10-17T09:50:49;25.10;95.30
44170;DHT22;29836;52.286;9.576;2022-10-17T09:53:24;24.60;96.50
44170;DHT22;29836;52.286;9.576;2022-10-17T09:56:00;24.40;96.60
44170;DHT22;29836;52.286;9.576;2022-10-17T09:58:43;23.20;98.30
44170;DHT22;29836;52.286;9.576;2022-10-17T10:01:29;22.20;99.90
44170;DHT22;29836;52.286;9.576;2022-10-17T10:04:12;21.50;99.90
44170;DHT22;29836;52.286;9.576;2022-10-17T10:06:40;21.30;99.90
44170;DHT22;29836;52.286;9.576;2022-10-17T10:09:20;21.80;99.90
44170;DHT22;29836;52.286;9.576;2022-10-17T10:11:51;22.80;99.90
44170;DHT22;29836;52.286;9.576;2022-10-17T10:14:34;23.60;99.90
44170;DHT22;29836;52.286;9.576;2022-10-17T10:17:02;24.40;98.80
44170;DHT22;29836;52.286;9.576;2022-10-17T10:19:34;25.30;97.00
44170;DHT22;29836;52.286;9.576;2022-10-17T10:22:02;25.90;94.70
44170;DHT22;29836;52.286;9.576;2022-10-17T10:24:28;25.40;95.10
44170;DHT22;29836;52.286;9.576;2022-10-17T10:26:57;25.10;95.40
44170;DHT22;29836;52.286;9.576;2022-10-17T10:29:30;24.90;96.10
44170;DHT22;29836;52.286;9.576;2022-10-17T10:34:51;24.70;96.40
44170;DHT22;29836;52.286;9.576;2022-10-17T10:37:28;24.90;96.10
44170;DHT22;29836;52.286;9.576;2022-10-17T10:40:18;25.00;96.10
44170;DHT22;29836;52.286;9.576;2022-10-17T10:42:46;25.60;95.60
44170;DHT22;29836;52.286;9.576;2022-10-17T10:47:38;25.40;94.60
44170;DHT22;29836;52.286;9.576;2022-10-17T10:50:24;25.20;94.60
44170;DHT22;29836;52.286;9.576;2022-10-17T10:55:36;24.60;95.70
44170;DHT22;29836;52.286;9.576;2022-10-17T11:00:49;24.20;96.30
44170;DHT22;29836;52.286;9.576;2022-10-17T11:03:26;24.20;96.80
44170;DHT22;29836;52.286;9.576;2022-10-17T11:06:13;23.80;97.50
44170;DHT22;29836;52.286;9.576;2022-10-17T11:08:42;24.10;97.00
44170;DHT22;29836;52.286;9.576;2022-10-17T11:11:24;24.40;97.00
44170;DHT22;29836;52.286;9.576;2022-10-17T11:16:49;23.80;97.10
44170;DHT22;29836;52.286;9.576;2022-10-17T11:19:31;23.60;98.20
44170;DHT22;29836;52.286;9.576;2022-10-17T11:22:03;23.60;98.50
44170;DHT22;29836;52.286;9.576;2022-10-17T11:27:21;23.80;98.50
44170;DHT22;29836;52.286;9.576;2022-10-17T11:29:47;24.10;97.90
44170;DHT22;29836;52.286;9.576;2022-10-17T11:32:22;24.30;97.60
44170;DHT22;29836;52.286;9.576;2022-10-17T11:35:06;24.40;97.60
44170;DHT22;29836;52.286;9.576;2022-10-17T11:37:37;24.50;96.90
44170;DHT22;29836;52.286;9.576;2022-10-17T11:40:18;24.50;97.20
44170;DHT22;29836;52.286;9.576;2022-10-17T11:45:40;24.80;96.80
44170;DHT22;29836;52.286;9.576;2022-10-17T11:48:22;24.90;96.60
44170;DHT22;29836;52.286;9.576;2022-10-17T11:50:58;24.90;96.70
44170;DHT22;29836;52.286;9.576;2022-10-17T11:54:12;24.70;96.40
44170;DHT22;29836;52.286;9.576;2022-10-17T11:56:18;24.70;97.10
44170;DHT22;29836;52.286;9.576;2022-10-17T11:58:59;24.70;96.60
44170;DHT22;29836;52.286;9.576;2022-10-17T12:04:20;24.60;96.90
44170;DHT22;29836;52.286;9.576;2022-10-17T12:07:14;24.70;96.90
44170;DHT22;29836;52.286;9.576;2022-10-17T12:12:40;24.60;96.80
44170;DHT22;29836;52.286;9.576;2022-10-17T12:17:44;24.20;96.80
44170;DHT22;29836;52.286;9.576;2022-10-17T12:20:28;24.00;97.20
44170;DHT22;29836;52.286;9.576;2022-10-17T12:25:46;23.70;97.90
44170;DHT22;29836;52.286;9.576;2022-10-17T12:28:34;23.40;98.30
44170;DHT22;29836;52.286;9.576;2022-10-17T12:33:58;23.20;99.00
44170;DHT22;29836;52.286;9.576;2022-10-17T12:46:57;23.30;98.90
44170;DHT22;29836;52.286;9.576;2022-10-17T12:53:16;23.60;99.00
44170;DHT22;29836;52.286;9.576;2022-10-17T12:55:18;23.60;99.20
44170;DHT22;29836;52.286;9.576;2022-10-17T12:57:58;23.80;99.20
44170;DHT22;29836;52.286;9.576;2022-10-17T13:00:42;23.60;99.00
44170;DHT22;29836;52.286;9.576;2022-10-17T13:03:17;23.60;99.10
44170;DHT22;29836;52.286;9.576;2022-10-17T13:05:50;23.50;99.40
44170;DHT22;29836;52.286;9.576;2022-10-17T13:08:24;23.30;99.90
44170;DHT22;29836;52.286;9.576;2022-10-17T13:10:53;23.30;99.90
44170;DHT22;29836;52.286;9.576;2022-10-17T13:13:37;23.20;99.90
44170;DHT22;29836;52.286;9.576;2022-10-17T13:16:05;23.20;99.90
44170;DHT22;29836;52.286;9.576;2022-10-17T13:18:31;23.10;99.90
44170;DHT22;29836;52.286;9.576;2022-10-17T13:21:05;23.00;99.90
44170;DHT22;29836;52.286;9.576;2022-10-17T13:23:34;23.00;99.90
44170;DHT22;29836;52.286;9.576;2022-10-17T13:26:12;22.90;99.90
44170;DHT22;29836;52.286;9.576;2022-10-17T13:28:39;22.90;99.90
44170;DHT22;29836;52.286;9.576;2022-10-17T13:31:05;22.90;99.90
44170;DHT22;29836;52.286;9.576;2022-10-17T13:33:33;23.00;99.90
44170;DHT22;29836;52.286;9.576;2022-10-17T13:36:02;23.00;99.90
44170;DHT22;29836;52.286;9.576;2022-10-17T13:38:31;23.10;99.90
44170;DHT22;29836;52.286;9.576;2022-10-17T13:40:58;23.10;99.90
44170;DHT22;29836;52.286;9.576;2022-10-17T13:43:24;23.00;99.90
44170;DHT22;29836;52.286;9.576;2022-10-17T13:46:15;22.90;99.90
44170;DHT22;29836;52.286;9.576;2022-10-17T13:48:44;22.80;99.90
44170;DHT22;29836;52.286;9.576;2022-10-17T13:51:10;22.70;99.90
44170;DHT22;29836;52.286;9.576;2022-10-17T13:53:38;22.60;99.90
44170;DHT22;29836;52.286;9.576;2022-10-17T13:58:48;22.60;99.90
44170;DHT22;29836;52.286;9.576;2022-10-17T14:01:15;22.50;99.90
44170;DHT22;29836;52.286;9.576;2022-10-17T14:03:42;22.40;99.90
44170;DHT22;29836;52.286;9.576;2022-10-17T14:06:12;22.30;99.90
44170;DHT22;29836;52.286;9.576;2022-10-17T14:11:37;22.20;99.90
44170;DHT22;29836;52.286;9.576;2022-10-17T14:14:06;22.20;99.90
44170;DHT22;29836;52.286;9.576;2022-10-17T14:16:36;22.20;99.90
44170;DHT22;29836;52.286;9.576;2022-10-17T14:19:03;22.10;99.90
44170;DHT22;29836;52.286;9.576;2022-10-17T14:21:29;22.10;99.90
44170;DHT22;29836;52.286;9.576;2022-10-17T14:24:13;22.10;99.90
44170;DHT22;29836;52.286;9.576;2022-10-17T14:27:22;21.90;99.90
44170;DHT22;29836;52.286;9.576;2022-10-17T14:29:51;22.00;99.90
44170;DHT22;29836;52.286;9.576;2022-10-17T14:32:17;22.00;99.90
44170;DHT22;29836;52.286;9.576;2022-10-17T14:34:44;22.00;99.90
44170;DHT22;29836;52.286;9.576;2022-10-17T14:37:35;22.00;99.90
44170;DHT22;29836;52.286;9.576;2022-10-17T14:40:03;22.00;99.90
44170;DHT22;29836;52.286;9.576;2022-10-17T14:42:30;22.00;99.90
44170;DHT22;29836;52.286;9.576;2022-10-17T14:45:04;22.00;99.90
44170;DHT22;29836;52.286;9.576;2022-10-17T14:47:30;21.90;99.90
44170;DHT22;29836;52.286;9.576;2022-10-17T14:52:33;21.80;99.90
44170;DHT22;29836;52.286;9.576;2022-10-17T14:55:11;21.70;99.90
44170;DHT22;29836;52.286;9.576;2022-10-17T14:57:43;21.70;99.90
44170;DHT22;29836;52.286;9.576;2022-10-17T15:00:13;21.60;99.90
44170;DHT22;29836;52.286;9.576;2022-10-17T15:02:39;21.50;99.90
44170;DHT22;29836;52.286;9.576;2022-10-17T15:05:05;21.50;99.90
44170;DHT22;29836;52.286;9.576;2022-10-17T15:07:30;21.50;99.90
44170;DHT22;29836;52.286;9.576;2022-10-17T15:09:56;21.40;99.90
44170;DHT22;29836;52.286;9.576;2022-10-17T15:12:23;21.30;99.90
44170;DHT22;29836;52.286;9.576;2022-10-17T15:14:49;21.30;99.90
44170;DHT22;29836;52.286;9.576;2022-10-17T15:17:27;21.20;99.90
44170;DHT22;29836;52.286;9.576;2022-10-17T15:19:54;21.10;99.90
44170;DHT22;29836;52.286;9.576;2022-10-17T15:22:21;21.10;99.90
44170;DHT22;29836;52.286;9.576;2022-10-17T15:24:46;21.00;99.90
44170;DHT22;29836;52.286;9.576;2022-10-17T15:27:15;21.00;99.90
44170;DHT22;29836;52.286;9.576;2022-10-17T15:29:41;20.90;99.90
44170;DHT22;29836;52.286;9.576;2022-10-17T15:32:07;20.80;99.90
44170;DHT22;29836;52.286;9.576;2022-10-17T15:34:32;20.70;99.90
44170;DHT22;29836;52.286;9.576;2022-10-17T15:36:58;20.70;99.90
44170;DHT22;29836;52.286;9.576;2022-10-17T15:39:24;20.60;99.90
44170;DHT22;29836;52.286;9.576;2022-10-17T15:41:49;20.50;99.90
44170;DHT22;29836;52.286;9.576;2022-10-17T15:44:15;20.50;99.90
44170;DHT22;29836;52.286;9.576;2022-10-17T15:46:41;20.40;99.90
44170;DHT22;29836;52.286;9.576;2022-10-17T15:49:12;20.40;99.90
44170;DHT22;29836;52.286;9.576;2022-10-17T15:51:38;20.40;99.90
44170;DHT22;29836;52.286;9.576;2022-10-17T15:54:04;20.30;99.90
44170;DHT22;29836;52.286;9.576;2022-10-17T15:56:33;20.30;99.90
44170;DHT22;29836;52.286;9.576;2022-10-17T15:59:04;20.20;99.90
44170;DHT22;29836;52.286;9.576;2022-10-17T16:01:31;20.20;99.90
44170;DHT22;29836;52.286;9.576;2022-10-17T16:03:57;20.20;99.90
44170;DHT22;29836;52.286;9.576;2022-10-17T16:06:23;20.10;99.90
44170;DHT22;29836;52.286;9.576;2022-10-17T16:08:50;20.00;99.90
44170;DHT22;29836;52.286;9.576;2022-10-17T16:11:18;20.00;99.90
44170;DHT22;29836;52.286;9.576;2022-10-17T16:13:49;20.00;99.90
44170;DHT22;29836;52.286;9.576;2022-10-17T16:16:16;20.00;99.90
44170;DHT22;29836;52.286;9.576;2022-10-17T16:18:41;19.90;99.90
44170;DHT22;29836;52.286;9.576;2022-10-17T16:21:11;19.80;99.90
44170;DHT22;29836;52.286;9.576;2022-10-17T16:23:37;19.60;99.90
44170;DHT22;29836;52.286;9.576;2022-10-17T16:26:02;19.40;99.90
44170;DHT22;29836;52.286;9.576;2022-10-17T16:28:28;19.30;99.90
44170;DHT22;29836;52.286;9.576;2022-10-17T16:30:53;19.10;99.90
44170;DHT22;29836;52.286;9.576;2022-10-17T16:33:19;19.00;99.90
44170;DHT22;29836;52.286;9.576;2022-10-17T16:35:45;18.90;99.90
44170;DHT22;29836;52.286;9.576;2022-10-17T16:38:11;18.90;99.90
44170;DHT22;29836;52.286;9.576;2022-10-17T16:40:37;18.80;99.90
44170;DHT22;29836;52.286;9.576;2022-10-17T16:43:04;18.80;99.90
44170;DHT22;29836;52.286;9.576;2022-10-17T16:45:30;18.80;99.90
44170;DHT22;29836;52.286;9.576;2022-10-17T16:47:56;18.80;99.90
44170;DHT22;29836;52.286;9.576;2022-10-17T16:50:21;18.70;99.90
44170;DHT22;29836;52.286;9.576;2022-10-17T16:52:47;18.80;99.90
44170;DHT22;29836;52.286;9.576;2022-10-17T16:55:13;18.70;99.90
44170;DHT22;29836;52.286;9.576;2022-10-17T16:57:38;18.80;99.90
44170;DHT22;29836;52.286;9.576;2022-10-17T17:00:07;18.80;99.90
44170;DHT22;29836;52.286;9.576;2022-10-17T17:02:33;18.70;99.90
44170;DHT22;29836;52.286;9.576;2022-10-17T17:04:58;18.70;99.90
44170;DHT22;29836;52.286;9.576;2022-10-17T17:07:24;18.80;99.90
44170;DHT22;29836;52.286;9.576;2022-10-17T17:09:53;18.80;99.90
44170;DHT22;29836;52.286;9.576;2022-10-17T17:12:19;18.80;99.90
44170;DHT22;29836;52.286;9.576;2022-10-17T17:14:45;18.80;99.90
44170;DHT22;29836;52.286;9.576;2022-10-17T17:17:10;18.80;99.90
44170;DHT22;29836;52.286;9.576;2022-10-17T17:19:36;18.80;99.90
44170;DHT22;29836;52.286;9.576;2022-10-17T17:22:02;18.70;99.90
44170;DHT22;29836;52.286;9.576;2022-10-17T17:24:28;18.70;99.90
44170;DHT22;29836;52.286;9.576;2022-10-17T17:26:54;18.70;99.90
44170;DHT22;29836;52.286;9.576;2022-10-17T17:29:21;18.70;99.90
44170;DHT22;29836;52.286;9.576;2022-10-17T17:31:47;18.70;99.90
44170;DHT22;29836;52.286;9.576;2022-10-17T17:34:13;18.70;99.90
44170;DHT22;29836;52.286;9.576;2022-10-17T17:36:39;18.60;99.90